Southeast Iowa Regional Airport Burlington US
ICAO: KBRL
IATA: BRL
Category: Medium
Scheduled Services: Yes

Elevation: 698 ft
TransAlt. 18000 ft.

Airport Communications:
ASOS:118.025
CHICAGO CNTR:135.6
FORT DODGE RDO:122.65
CTAF/UNICOM:123

KBRL Zoom In..

If you have problems with the map follow the link
https://www.worldairports.se/pages/airport.php?
ICAO=KBRL

Runways:

(A) RW 12 length 5351 ft width 100 ft
---- / hdg 119

(B) RW 18 length 6701 ft width 150 ft
---- / hdg 179

(C) RW 30 length 5351 ft width 100 ft
---- / hdg 299

(D) RW 36 length 6701 ft width 150 ft
ILS 108.90 / hdg 359

Location; KBRL
Day. 27 / Time. 05.01 Zulu
* Altimeter: 29.95
* Temperature: -02° c. -28.4°f.
* Wind from: 000° Speed 00 kn.
Dewpoint: -03° c.
Visibility: 2 Statute Miles.
Clouds: Overcast 200 ft.
Conditions: Mist.

KBRL 270501Z AUTO 00000KT 2SM BR OVC002 M02/M03 A2995 RMK AO2 T10221033 $


Wind - Calm.

 
 
jpsmedia worldairports.se 2020   terms of use